Time,TemperatureF,DewpointF,PressureIn,WindDirection,WindDirectionDegrees,WindSpeedMPH,WindSpeedGustMPH,Humidity,HourlyPrecipIn,Conditions,Clouds,dailyrainin,SoftwareType,DateUTC
2013-03-16 00:02:00,42.0,34.0,29.90,NNE,17,0.0,0.0,73,0.00,,,0.00,,2013-03-16 06:02:00,
2013-03-16 00:12:00,42.0,34.0,29.90,NNE,17,0.0,0.0,73,0.00,,,0.00,,2013-03-16 06:12:00,
2013-03-16 00:21:00,42.0,34.0,29.91,SW,227,1.0,6.0,74,0.00,,,0.00,,2013-03-16 06:21:00,
2013-03-16 00:32:00,43.0,35.0,29.91,SW,219,1.0,7.0,73,0.00,,,0.00,,2013-03-16 06:32:00,
2013-03-16 00:41:00,43.0,35.0,29.91,SW,219,1.0,7.0,73,0.00,,,0.00,,2013-03-16 06:41:00,
2013-03-16 00:52:00,43.0,35.0,29.90,SW,219,0.0,3.0,72,0.00,,,0.00,,2013-03-16 06:52:00,
2013-03-16 01:01:00,43.0,35.0,29.89,WSW,242,3.0,5.0,73,0.00,,,0.00,,2013-03-16 07:01:00,
2013-03-16 01:11:00,43.0,35.0,29.89,WSW,242,3.0,5.0,73,0.00,,,0.00,,2013-03-16 07:11:00,
2013-03-16 01:22:00,43.0,35.0,29.89,SW,217,0.0,5.0,74,0.00,,,0.00,,2013-03-16 07:22:00,
2013-03-16 01:32:00,43.0,35.0,29.88,SW,217,0.0,1.0,74,0.00,,,0.00,,2013-03-16 07:32:00,
2013-03-16 01:42:00,43.0,35.0,29.88,SW,217,0.0,1.0,74,0.00,,,0.00,,2013-03-16 07:42:00,
2013-03-16 01:52:00,42.0,35.0,29.88,SSW,199,0.0,3.0,75,0.00,,,0.00,,2013-03-16 07:52:00,
2013-03-16 02:02:00,42.0,35.0,29.88,SE,146,0.0,3.0,76,0.00,,,0.00,,2013-03-16 08:02:00,
2013-03-16 02:12:00,42.0,35.0,29.88,SE,146,0.0,3.0,76,0.00,,,0.00,,2013-03-16 08:12:00,
2013-03-16 02:22:00,42.0,35.0,29.88,SE,146,0.0,3.0,76,0.00,,,0.00,,2013-03-16 08:22:00,
2013-03-16 02:32:00,41.0,35.0,29.87,ESE,113,2.0,4.0,79,0.00,,,0.00,,2013-03-16 08:32:00,
2013-03-16 02:41:00,41.0,35.0,29.87,ESE,113,2.0,4.0,79,0.00,,,0.00,,2013-03-16 08:41:00,
2013-03-16 02:52:00,41.0,35.0,29.87,ESE,115,1.0,4.0,80,0.00,,,0.00,,2013-03-16 08:52:00,
2013-03-16 03:01:00,40.0,34.0,29.88,ESE,111,0.0,3.0,80,0.00,,,0.00,,2013-03-16 09:01:00,
2013-03-16 03:11:00,40.0,34.0,29.88,ESE,111,0.0,3.0,80,0.00,,,0.00,,2013-03-16 09:11:00,
2013-03-16 03:22:00,38.0,32.0,29.88,NNW,342,3.0,9.0,79,0.00,,,0.00,,2013-03-16 09:22:00,
2013-03-16 03:32:00,37.0,32.0,29.88,NNW,340,0.0,3.0,82,0.00,,,0.00,,2013-03-16 09:32:00,
2013-03-16 03:42:00,37.0,32.0,29.88,NNW,340,0.0,3.0,82,0.00,,,0.00,,2013-03-16 09:42:00,
2013-03-16 03:52:00,37.0,33.0,29.88,NNW,348,1.0,5.0,84,0.00,,,0.00,,2013-03-16 09:52:00,
2013-03-16 04:03:00,36.0,32.0,29.88,NNW,346,0.0,1.0,85,0.00,,,0.00,,2013-03-16 10:03:00,
2013-03-16 04:12:00,36.0,32.0,29.88,NNW,346,0.0,1.0,85,0.00,,,0.00,,2013-03-16 10:12:00,
2013-03-16 04:22:00,36.0,32.0,29.87,NNW,346,0.0,1.0,86,0.00,,,0.00,,2013-03-16 10:22:00,
2013-03-16 04:32:00,36.0,33.0,29.87,NNW,346,0.0,1.0,87,0.00,,,0.00,,2013-03-16 10:32:00,
2013-03-16 04:42:00,36.0,33.0,29.87,NNW,346,0.0,1.0,87,0.00,,,0.00,,2013-03-16 10:42:00,
2013-03-16 04:52:00,35.0,32.0,29.87,WNW,296,1.0,2.0,88,0.00,,,0.00,,2013-03-16 10:52:00,
2013-03-16 05:02:00,35.0,32.0,29.86,WNW,296,0.0,2.0,89,0.00,,,0.00,,2013-03-16 11:02:00,
2013-03-16 05:11:00,35.0,32.0,29.86,WNW,296,0.0,2.0,89,0.00,,,0.00,,2013-03-16 11:11:00,
2013-03-16 05:21:00,35.0,32.0,29.86,WNW,296,0.0,2.0,89,0.00,,,0.00,,2013-03-16 11:21:00,
2013-03-16 05:32:00,34.0,31.0,29.86,WNW,294,0.0,2.0,89,0.00,,,0.00,,2013-03-16 11:32:00,
2013-03-16 05:42:00,34.0,31.0,29.86,WNW,294,0.0,2.0,89,0.00,,,0.00,,2013-03-16 11:42:00,
2013-03-16 05:51:00,34.0,31.0,29.85,WNW,294,0.0,3.0,90,0.00,,,0.00,,2013-03-16 11:51:00,
2013-03-16 06:01:00,33.0,30.0,29.85,WNW,294,0.0,2.0,90,0.00,,,0.00,,2013-03-16 12:01:00,
2013-03-16 06:12:00,33.0,30.0,29.85,WNW,294,0.0,2.0,90,0.00,,,0.00,,2013-03-16 12:12:00,
2013-03-16 06:22:00,33.0,30.0,29.85,WNW,294,0.0,1.0,90,0.00,,,0.00,,2013-03-16 12:22:00,
2013-03-16 06:32:00,32.0,30.0,29.85,WNW,294,0.0,1.0,91,0.00,,,0.00,,2013-03-16 12:32:00,
2013-03-16 06:42:00,32.0,30.0,29.85,WNW,294,0.0,1.0,91,0.00,,,0.00,,2013-03-16 12:42:00,
2013-03-16 06:52:00,32.0,30.0,29.85,WNW,294,0.0,1.0,91,0.00,,,0.00,,2013-03-16 12:52:00,
2013-03-16 07:02:00,31.0,29.0,29.85,WNW,294,0.0,0.0,91,0.00,,,0.00,,2013-03-16 13:02:00,
2013-03-16 07:12:00,31.0,29.0,29.85,WNW,294,0.0,0.0,91,0.00,,,0.00,,2013-03-16 13:12:00,
2013-03-16 07:22:00,31.0,29.0,29.85,WNW,294,0.0,1.0,91,0.00,,,0.00,,2013-03-16 13:22:00,
2013-03-16 07:32:00,30.0,28.0,29.84,WNW,294,0.0,3.0,92,0.00,,,0.00,,2013-03-16 13:32:00,
2013-03-16 07:41:00,30.0,28.0,29.84,WNW,294,0.0,3.0,92,0.00,,,0.00,,2013-03-16 13:41:00,
2013-03-16 07:52:00,30.0,28.0,29.84,WNW,294,0.0,2.0,93,0.00,,,0.00,,2013-03-16 13:52:00,
2013-03-16 08:02:00,30.0,28.0,29.84,WNW,292,0.0,2.0,93,0.00,,,0.00,,2013-03-16 14:02:00,
2013-03-16 08:11:00,30.0,28.0,29.84,WNW,292,0.0,2.0,93,0.00,,,0.00,,2013-03-16 14:11:00,
2013-03-16 08:22:00,30.0,28.0,29.83,WNW,292,0.0,2.0,93,0.00,,,0.00,,2013-03-16 14:22:00,
2013-03-16 08:32:00,30.0,28.0,29.83,WNW,292,1.0,3.0,93,0.00,,,0.00,,2013-03-16 14:32:00,
2013-03-16 08:42:00,30.0,28.0,29.83,WNW,292,1.0,3.0,93,0.00,,,0.00,,2013-03-16 14:42:00,
2013-03-16 08:52:00,30.0,28.0,29.83,WNW,292,0.0,2.0,94,0.00,,,0.00,,2013-03-16 14:52:00,
2013-03-16 09:02:00,30.0,28.0,29.83,WNW,293,0.0,2.0,94,0.00,,,0.00,,2013-03-16 15:02:00,
2013-03-16 09:12:00,30.0,28.0,29.83,WNW,293,0.0,2.0,94,0.00,,,0.00,,2013-03-16 15:12:00,
2013-03-16 09:22:00,31.0,29.0,29.83,WNW,293,0.0,1.0,94,0.00,,,0.00,,2013-03-16 15:22:00,
2013-03-16 09:33:00,31.0,29.0,29.83,WNW,293,0.0,1.0,94,0.00,,,0.00,,2013-03-16 15:33:00,
2013-03-16 09:42:00,31.0,29.0,29.83,WNW,293,0.0,1.0,94,0.00,,,0.00,,2013-03-16 15:42:00,
2013-03-16 09:52:00,32.0,31.0,29.84,WNW,293,0.0,3.0,95,0.00,,,0.00,,2013-03-16 15:52:00,
2013-03-16 10:02:00,33.0,32.0,29.83,WNW,288,0.0,2.0,95,0.00,,,0.00,,2013-03-16 16:02:00,
2013-03-16 10:12:00,33.0,32.0,29.83,WNW,288,0.0,2.0,95,0.00,,,0.00,,2013-03-16 16:12:00,
2013-03-16 10:22:00,34.0,33.0,29.83,WNW,288,0.0,1.0,95,0.00,,,0.00,,2013-03-16 16:22:00,
2013-03-16 10:33:00,36.0,35.0,29.83,SW,223,1.0,4.0,96,0.00,,,0.00,,2013-03-16 16:33:00,
2013-03-16 10:42:00,36.0,35.0,29.83,SW,223,1.0,4.0,96,0.00,,,0.00,,2013-03-16 16:42:00,
2013-03-16 10:52:00,37.0,36.0,29.82,SW,223,0.0,1.0,95,0.00,,,0.00,,2013-03-16 16:52:00,
2013-03-16 11:02:00,38.0,36.0,29.82,SW,223,0.0,1.0,94,0.00,,,0.00,,2013-03-16 17:02:00,
2013-03-16 11:12:00,38.0,36.0,29.82,SW,223,0.0,1.0,94,0.00,,,0.00,,2013-03-16 17:12:00,
2013-03-16 11:22:00,39.0,36.0,29.82,SE,130,2.0,5.0,89,0.00,,,0.00,,2013-03-16 17:22:00,
2013-03-16 11:32:00,40.0,36.0,29.81,SSE,155,1.0,5.0,86,0.00,,,0.00,,2013-03-16 17:32:00,
2013-03-16 11:42:00,40.0,36.0,29.81,SSE,155,1.0,5.0,86,0.00,,,0.00,,2013-03-16 17:42:00,
2013-03-16 11:52:00,41.0,37.0,29.81,SSE,151,2.0,6.0,85,0.00,,,0.00,,2013-03-16 17:52:00,
2013-03-16 12:02:00,43.0,37.0,29.80,SSE,156,2.0,7.0,80,0.00,,,0.00,,2013-03-16 18:02:00,
2013-03-16 12:12:00,43.0,37.0,29.80,SSE,156,2.0,7.0,80,0.00,,,0.00,,2013-03-16 18:12:00,
2013-03-16 12:22:00,44.0,37.0,29.80,South,180,5.0,10.0,77,0.00,,,0.00,,2013-03-16 18:22:00,
2013-03-16 12:32:00,46.0,37.0,29.80,South,171,5.0,13.0,72,0.00,,,0.00,,2013-03-16 18:32:00,
2013-03-16 12:42:00,46.0,37.0,29.80,South,171,5.0,13.0,72,0.00,,,0.00,,2013-03-16 18:42:00,
2013-03-16 12:52:00,46.0,37.0,29.79,SSW,192,7.0,13.0,71,0.00,,,0.00,,2013-03-16 18:52:00,
2013-03-16 13:01:00,46.0,37.0,29.78,SSW,196,6.0,17.0,71,0.00,,,0.00,,2013-03-16 19:01:00,
2013-03-16 13:11:00,46.0,37.0,29.78,SSW,196,6.0,17.0,71,0.00,,,0.00,,2013-03-16 19:11:00,
2013-03-16 13:21:00,46.0,37.0,29.77,SSW,196,8.0,14.0,70,0.00,,,0.00,,2013-03-16 19:21:00,
2013-03-16 13:32:00,46.0,36.0,29.77,SSW,202,6.0,15.0,69,0.00,,,0.00,,2013-03-16 19:32:00,
2013-03-16 13:42:00,46.0,36.0,29.77,SSW,202,6.0,15.0,69,0.00,,,0.00,,2013-03-16 19:42:00,
2013-03-16 13:52:00,47.0,37.0,29.76,South,180,7.0,13.0,67,0.00,,,0.00,,2013-03-16 19:52:00,
2013-03-16 14:02:00,48.0,37.0,29.75,SSE,149,4.0,13.0,66,0.00,,,0.00,,2013-03-16 20:02:00,
2013-03-16 14:11:00,48.0,37.0,29.75,SSE,149,4.0,13.0,66,0.00,,,0.00,,2013-03-16 20:11:00,
2013-03-16 14:21:00,47.0,38.0,29.74,SE,126,4.0,11.0,70,0.00,,,0.00,,2013-03-16 20:21:00,
2013-03-16 14:32:00,47.0,39.0,29.73,SW,220,4.0,10.0,73,0.00,,,0.00,,2013-03-16 20:32:00,
2013-03-16 14:42:00,47.0,39.0,29.73,SW,220,4.0,10.0,73,0.00,,,0.00,,2013-03-16 20:42:00,
2013-03-16 14:51:00,48.0,36.0,29.72,SW,232,7.0,11.0,64,0.00,,,0.00,,2013-03-16 20:51:00,
2013-03-16 15:02:00,49.0,38.0,29.72,SSW,194,8.0,17.0,66,0.00,,,0.00,,2013-03-16 21:02:00,
2013-03-16 15:11:00,49.0,38.0,29.72,SSW,194,8.0,17.0,66,0.00,,,0.00,,2013-03-16 21:11:00,
2013-03-16 15:22:00,47.0,37.0,29.71,SSE,162,10.0,16.0,68,0.00,,,0.00,,2013-03-16 21:22:00,
2013-03-16 15:42:00,47.0,37.0,29.71,SSE,162,10.0,16.0,68,0.00,,,0.00,,2013-03-16 21:42:00,
2013-03-16 15:52:00,46.0,35.0,29.69,South,181,13.0,23.0,66,0.00,,,0.00,,2013-03-16 21:52:00,
2013-03-16 16:03:00,45.0,35.0,29.69,SSW,209,11.0,22.0,67,0.00,,,0.00,,2013-03-16 22:03:00,
2013-03-16 16:12:00,45.0,35.0,29.69,SSW,209,11.0,22.0,67,0.00,,,0.00,,2013-03-16 22:12:00,
2013-03-16 16:22:00,45.0,35.0,29.68,SSW,204,12.0,20.0,67,0.00,,,0.00,,2013-03-16 22:22:00,
2013-03-16 16:32:00,45.0,35.0,29.68,SSW,192,12.0,17.0,67,0.00,,,0.00,,2013-03-16 22:32:00,
2013-03-16 16:42:00,45.0,35.0,29.68,SSW,192,12.0,17.0,67,0.00,,,0.00,,2013-03-16 22:42:00,
2013-03-16 16:52:00,46.0,35.0,29.67,SSW,205,10.0,16.0,64,0.00,,,0.00,,2013-03-16 22:52:00,
2013-03-16 17:02:00,46.0,33.0,29.67,SSW,194,7.0,20.0,61,0.00,,,0.00,,2013-03-16 23:02:00,
2013-03-16 17:12:00,46.0,33.0,29.67,SSW,194,7.0,20.0,61,0.00,,,0.00,,2013-03-16 23:12:00,
2013-03-16 17:22:00,46.0,34.0,29.67,South,173,4.0,10.0,62,0.00,,,0.00,,2013-03-16 23:22:00,
2013-03-16 17:32:00,46.0,35.0,29.66,South,175,5.0,11.0,64,0.00,,,0.00,,2013-03-16 23:32:00,
2013-03-16 17:42:00,46.0,35.0,29.66,South,175,5.0,11.0,64,0.00,,,0.00,,2013-03-16 23:42:00,
2013-03-16 17:52:00,46.0,34.0,29.65,SSW,204,9.0,22.0,63,0.00,,,0.00,,2013-03-16 23:52:00,
2013-03-16 18:01:00,46.0,34.0,29.65,SW,219,8.0,15.0,63,0.00,,,0.00,,2013-03-17 00:01:00,
2013-03-16 18:12:00,46.0,34.0,29.65,SW,219,8.0,15.0,63,0.00,,,0.00,,2013-03-17 00:12:00,
2013-03-16 18:22:00,45.0,36.0,29.65,SSE,155,4.0,13.0,71,0.00,,,0.00,,2013-03-17 00:22:00,
2013-03-16 18:32:00,44.0,36.0,29.64,SSE,157,5.0,10.0,74,0.00,,,0.00,,2013-03-17 00:32:00,
2013-03-16 18:42:00,44.0,36.0,29.64,SSE,157,5.0,10.0,74,0.00,,,0.00,,2013-03-17 00:42:00,
2013-03-16 18:52:00,42.0,35.0,29.64,SSE,161,6.0,22.0,76,0.00,,,0.00,,2013-03-17 00:52:00,
2013-03-16 19:02:00,42.0,35.0,29.63,South,176,6.0,13.0,75,0.00,,,0.00,,2013-03-17 01:02:00,
2013-03-16 19:11:00,42.0,35.0,29.63,South,176,6.0,13.0,75,0.00,,,0.00,,2013-03-17 01:11:00,
2013-03-16 19:22:00,42.0,34.0,29.63,SSW,195,2.0,13.0,74,0.00,,,0.00,,2013-03-17 01:22:00,
2013-03-16 19:32:00,42.0,35.0,29.62,SSE,157,3.0,9.0,76,0.00,,,0.00,,2013-03-17 01:32:00,
2013-03-16 19:41:00,42.0,35.0,29.62,SSE,157,3.0,9.0,76,0.00,,,0.00,,2013-03-17 01:41:00,
2013-03-16 19:52:00,41.0,34.0,29.62,SSE,167,6.0,10.0,76,0.00,,,0.00,,2013-03-17 01:52:00,
2013-03-16 20:02:00,41.0,34.0,29.62,SSE,168,4.0,8.0,77,0.00,,,0.00,,2013-03-17 02:02:00,
2013-03-16 20:11:00,41.0,34.0,29.62,SSE,168,4.0,8.0,77,0.00,,,0.00,,2013-03-17 02:11:00,
2013-03-16 20:22:00,41.0,35.0,29.61,SSE,159,5.0,9.0,78,0.00,,,0.00,,2013-03-17 02:22:00,
2013-03-16 20:32:00,41.0,34.0,29.61,SSE,159,4.0,9.0,77,0.00,,,0.00,,2013-03-17 02:32:00,
2013-03-16 20:42:00,41.0,34.0,29.61,SSE,159,4.0,9.0,77,0.00,,,0.00,,2013-03-17 02:42:00,
2013-03-16 20:52:00,41.0,34.0,29.62,SSE,152,2.0,6.0,76,0.00,,,0.00,,2013-03-17 02:52:00,
2013-03-16 21:02:00,41.0,34.0,29.61,SSE,147,2.0,5.0,76,0.00,,,0.00,,2013-03-17 03:02:00,
2013-03-16 21:11:00,41.0,34.0,29.61,SSE,147,2.0,5.0,76,0.00,,,0.00,,2013-03-17 03:11:00,
2013-03-16 21:21:00,41.0,35.0,29.60,SSE,153,3.0,8.0,79,0.00,,,0.00,,2013-03-17 03:21:00,
2013-03-16 21:33:00,40.0,35.0,29.60,South,171,3.0,7.0,82,0.00,,,0.00,,2013-03-17 03:33:00,
2013-03-16 21:42:00,40.0,35.0,29.60,South,171,3.0,7.0,82,0.00,,,0.00,,2013-03-17 03:42:00,
2013-03-16 21:52:00,40.0,36.0,29.59,SE,139,4.0,7.0,84,0.00,,,0.00,,2013-03-17 03:52:00,
2013-03-16 22:02:00,39.0,35.0,29.59,SSE,163,0.0,6.0,86,0.00,,,0.00,,2013-03-17 04:02:00,
2013-03-16 22:12:00,39.0,35.0,29.59,SSE,163,0.0,6.0,86,0.00,,,0.00,,2013-03-17 04:12:00,
2013-03-16 22:22:00,39.0,35.0,29.59,SSE,150,0.0,4.0,85,0.00,,,0.00,,2013-03-17 04:22:00,
2013-03-16 22:32:00,39.0,35.0,29.58,SSE,165,1.0,4.0,84,0.00,,,0.00,,2013-03-17 04:32:00,
2013-03-16 22:42:00,39.0,35.0,29.58,SSE,165,1.0,4.0,84,0.00,,,0.00,,2013-03-17 04:42:00,
2013-03-16 22:52:00,39.0,34.0,29.58,SSE,159,0.0,4.0,82,0.00,,,0.00,,2013-03-17 04:52:00,
2013-03-16 23:02:00,39.0,33.0,29.57,SSE,148,1.0,4.0,80,0.00,,,0.00,,2013-03-17 05:02:00,
2013-03-16 23:11:00,39.0,33.0,29.57,SSE,148,1.0,4.0,80,0.00,,,0.00,,2013-03-17 05:11:00,
2013-03-16 23:22:00,39.0,33.0,29.57,ESE,118,0.0,4.0,80,0.00,,,0.00,,2013-03-17 05:22:00,
2013-03-16 23:32:00,39.0,34.0,29.56,ESE,119,0.0,1.0,81,0.00,,,0.00,,2013-03-17 05:32:00,
2013-03-16 23:42:00,39.0,34.0,29.56,ESE,119,0.0,1.0,81,0.00,,,0.00,,2013-03-17 05:42:00,
2013-03-16 23:51:00,39.0,33.0,29.56,SSE,155,1.0,4.0,80,0.00,,,0.00,,2013-03-17 05:51:00,